This is the latest recevied weather packets stored in our database for station/object JA0ZJX-13. If no packets are shown the sender has not sent any weather packets the latest 10 day(s).
| Time | Temp. | Humidity | Pressure | Rain* | Wind** | Luminosity | Snow |
|---|---|---|---|---|---|---|---|
| 1777803223 | 13.33° C | 84% | 1007.2 hPa | 1.02 mm | - | 0 W/m² | - |
| 1777802612 | 13.33° C | 83% | 1007.4 hPa | 0.76 mm | - | 0 W/m² | - |
| 1777802006 | 13.89° C | 82% | 1007.3 hPa | 0.51 mm | - | 0 W/m² | - |
| 1777801413 | 13.89° C | 80% | 1007.5 hPa | 0.51 mm | - | 0 W/m² | - |
| 1777800822 | 15° C | 75% | 1007.3 hPa | 0 mm | - | 0 W/m² | - |
| 1777800213 | 15.56° C | 70% | 1006.8 hPa | 0 mm | - | 0 W/m² | - |
| 1777799604 | 16.11° C | 65% | 1007 hPa | 0 mm | - | 0 W/m² | - |
| 1777799014 | 16.67° C | 61% | 1007.1 hPa | 0 mm | - | 7 W/m² | - |
| 1777798423 | 16.67° C | 60% | 1006.8 hPa | 0 mm | - | 16 W/m² | - |
| 1777797817 | 17.22° C | 61% | 1006.8 hPa | 0 mm | - | 19 W/m² | - |
| 1777797205 | 16.67° C | 62% | 1006.9 hPa | 0 mm | - | 21 W/m² | - |
| 1777796613 | 17.22° C | 61% | 1007.3 hPa | 0 mm | - | 23 W/m² | - |
| 1777796003 | 17.78° C | 58% | 1006.8 hPa | 0 mm | - | 39 W/m² | - |
| 1777795417 | 17.78° C | 57% | 1007.1 hPa | 0 mm | - | 28 W/m² | - |
| 1777794807 | 17.78° C | 55% | 1007.1 hPa | 0 mm | - | 32 W/m² | - |
| 1777794217 | 18.33° C | 54% | 1007.2 hPa | 0 mm | - | 18 W/m² | - |
| 1777793607 | 18.33° C | 54% | 1007.2 hPa | 0 mm | - | 23 W/m² | - |
| 1777793020 | 18.33° C | 53% | 1007.3 hPa | 0 mm | - | 26 W/m² | - |
| 1777792410 | 18.89° C | 51% | 1007 hPa | 0 mm | - | 77 W/m² | - |
| 1777791819 | 18.89° C | 50% | 1007.1 hPa | 0 mm | - | 44 W/m² | - |
| 1777791213 | 19.44° C | 48% | 1007.3 hPa | 0 mm | - | 46 W/m² | - |
| 1777790622 | 19.44° C | 47% | 1007.4 hPa | 0 mm | - | 63 W/m² | - |
| 1777790010 | 20° C | 44% | 1007.3 hPa | 0 mm | - | 65 W/m² | - |
| 1777789418 | 20° C | 44% | 1007.2 hPa | 0 mm | - | 93 W/m² | - |
| 1777788812 | 20° C | 45% | 1007.3 hPa | 0 mm | - | 90 W/m² | - |
* Rain latest hour (hover to see other rain measurements)
** Current wind speed in m/s (hover to see current wind gust speed)